Nearby METAR Reports


KANE - Minneapls/Blaine, Minnesota, USA
Distance from station: ESE 8mi, 13km
Updated: 11/17/2019 6:45pm
Overcast
Overcast
 Wind from NW
Wind: NW 9 mph , 15 km/h
Temperature: 34°F , 1°C
Wind Chill: 27°F , -3°C
Dew Point: 27°F , -3°C
Humidity: 75%
Barometer: 29.87 inHg , 1011.5 hPa
Clouds: Overcast
Visibility: 10 miles , 16 km
Cloud details: Overcast 1900 ft
2019/11/18 00:45 KANE 180045Z 32008KT 10SM OVC019 01/M03 A2987
KMIC - Mnpls/Crystal, Minnesota, USA
Distance from station: S 8mi, 14km
Updated: 11/17/2019 6:53pm
Overcast
Overcast
 Wind from NW
Wind: NW 3 mph , 6 km/h
Temperature: 32°F , 0°C
Dew Point: 25°F , -4°C
Humidity: 75%
Barometer: 29.86 inHg , 1011.2 hPa
Clouds: Overcast
Visibility: 10 miles , 16 km
Cloud details: Overcast 2000 ft
2019/11/18 00:53 KMIC 180053Z 31003KT 10SM OVC020 00/M04 A2986 RMK AO2 SLP122 T00001044 $
 
KMSP - Minneapolis, Minnesota, USA
Distance from station: SSE 22mi, 35km
Updated: 11/17/2019 6:53pm
Overcast
Overcast
 Wind from WNW
Wind: WNW 6 mph , 9 km/h
Temperature: 32°F , 0°C
Wind Chill: 26°F , -3°C
Dew Point: 25°F , -4°C
Humidity: 75%
Barometer: 29.88 inHg , 1011.9 hPa
Clouds: Overcast
Visibility: 10 miles , 16 km
Cloud details: Overcast 1900 ft
2019/11/18 00:53 KMSP 180053Z 30005KT 10SM OVC019 00/M04 A2988 RMK AO2 SLP127 T00001039
KSTP - St. Paul, Minnesota, USA
Distance from station: SE 23mi, 38km
Updated: 11/17/2019 6:53pm
Overcast
Overcast
 Wind from NNW
Wind: NNW 7 mph , 11 km/h
Temperature: 32°F , 0°C
Wind Chill: 25°F , -4°C
Dew Point: 25°F , -4°C
Humidity: 75%
Barometer: 29.89 inHg , 1012.2 hPa
Clouds: Overcast
Visibility: 10 miles , 16 km
Cloud details: Overcast 2100 ft
2019/11/18 00:53 KSTP 180053Z 33006KT 10SM OVC021 00/M04 A2989 RMK AO2 SLP128 T00001044
 
KCFE - Buffalo Muni, Minnesota, USA
Distance from station: W 24mi, 38km
Updated: 11/17/2019 7:16pm
Overcast
Overcast
 
Temperature: 32°F , 0°C
Dew Point: 27°F , -3°C
Humidity: 80%
Barometer: 29.89 inHg , 1012.2 hPa
Clouds: Overcast
Visibility: 10 miles , 16 km
Cloud details: Overcast 1600 ft
2019/11/18 01:16 KCFE 180116Z 10SM OVC016 00/M03 A2989 RMK AO2 T10011031
KFCM - Mnpls/Flying Cld, Minnesota, USA
Distance from station: S 25mi, 40km
Updated: 11/17/2019 6:53pm
Overcast
Overcast
 Wind from NNW
Wind: NNW 6 mph , 9 km/h
Temperature: 34°F , 1°C
Wind Chill: 29°F , -2°C
Dew Point: 27°F , -3°C
Humidity: 75%
Barometer: 29.87 inHg , 1011.5 hPa
Clouds: Overcast
Visibility: 10 miles , 16 km
Cloud details: Overcast 1500 ft
2019/11/18 00:53 KFCM 180053Z 34005KT 10SM OVC015 01/M03 A2987 RMK AO2 SLP124 T00061033 $
 
KCBG - Cambridge Muni, Minnesota, USA
Distance from station: N 27mi, 43km
Updated: 11/17/2019 6:55pm
Overcast
Overcast
 Wind from W
Wind: W 3 mph , 6 km/h
Temperature: 32°F , 0°C
Dew Point: 23°F , -5°C
Humidity: 69%
Barometer: 29.86 inHg , 1011.2 hPa
Clouds: Overcast
Visibility: 10 miles , 16 km
Cloud details: Overcast 2000 ft
2019/11/18 00:55 KCBG 180055Z AUTO 28003KT 10SM OVC020 00/M05 A2986 RMK AO2
KPNM - Princeton Muni, Minnesota, USA
Distance from station: NNW 27mi, 44km
Updated: 11/17/2019 7:16pm
Overcast
Overcast
 Wind from W
Wind: W 6 mph , 9 km/h
Temperature: 30°F , -1°C
Wind Chill: 24°F , -4°C
Dew Point: 25°F , -4°C
Humidity: 80%
Barometer: 29.87 inHg , 1011.5 hPa
Clouds: Overcast
Visibility: 10 miles , 16 km
Cloud details: Overcast 1800 ft
2019/11/18 01:16 KPNM 180116Z AUTO 27005KT 10SM OVC018 M01/M04 A2987 RMK AO2
 
K21D - Lake Elmo, Minnesota, USA
Distance from station: ESE 28mi, 46km
Updated: 11/17/2019 7:16pm
Overcast
Overcast
 Wind from NNW
Wind: NNW 3 mph , 6 km/h
Temperature: 32°F , 0°C
Dew Point: 27°F , -3°C
Humidity: 80%
Barometer: 29.88 inHg , 1011.9 hPa
Clouds: Overcast
Visibility: 10 miles , 16 km
Cloud details: Overcast 1800 ft
2019/11/18 01:16 K21D 180116Z AUTO 34003KT 10SM OVC018 00/M03 A2988 RMK AO2
KSGS - South St Paul, Minnesota, USA
Distance from station: SE 28mi, 46km
Updated: 11/17/2019 7:15pm
Overcast
Overcast
 Wind from NNW
Wind: NNW 7 mph , 11 km/h
Temperature: 32°F , 0°C
Wind Chill: 25°F , -4°C
Dew Point: 25°F , -4°C
Humidity: 75%
Barometer: 29.88 inHg , 1011.9 hPa
Clouds: Overcast
Visibility: 10 miles , 16 km
Cloud details: Overcast 1900 ft
2019/11/18 01:15 KSGS 180115Z AUTO 34006KT 10SM OVC019 00/M04 A2988 RMK AO2 T00011037
 
KMGG - Maple Lake, Minnesota, USA
Distance from station: W 30mi, 48km
Updated: 11/17/2019 7:16pm

 Wind from calm
Wind: Calm
Temperature: 32°F , 0°C
Dew Point: 28°F , -2°C
Humidity: 87%
Barometer: 29.89 inHg , 1012.2 hPa
Visibility: 10 miles , 16 km
2019/11/18 01:16 KMGG 180116Z AUTO 00000KT 10SM 00/M02 A2989 RMK AO2 T00001020
KOEO - Osceola, Wisconsin, USA
Distance from station: ENE 34mi, 55km
Updated: 11/17/2019 6:55pm
Overcast
Overcast
 Wind from WNW
Wind: WNW 5 mph , 7 km/h
Temperature: 32°F , 0°C
Wind Chill: 27°F , -3°C
Dew Point: 27°F , -3°C
Humidity: 80%
Barometer: 29.90 inHg , 1012.5 hPa
Clouds: Overcast
Visibility: 10 miles , 16 km
Cloud details: Overcast 2000 ft
2019/11/18 00:55 KOEO 180055Z AUTO 29004KT 10SM OVC020 00/M03 A2990 RMK AO2 T00001026
 
KLVN - Mnpls/Airlake, Minnesota, USA
Distance from station: S 39mi, 63km
Updated: 11/17/2019 7:16pm
Overcast
Overcast
 Wind from NNW
Wind: NNW 6 mph , 9 km/h
Temperature: 34°F , 1°C
Wind Chill: 29°F , -2°C
Dew Point: 30°F , -1°C
Humidity: 87%
Barometer: 29.87 inHg , 1011.5 hPa
Clouds: Overcast
Visibility: 10 miles , 16 km
Cloud details: Overcast 1300 ft
2019/11/18 01:16 KLVN 180116Z AUTO 33005KT 10SM OVC013 01/M01 A2987 RMK AO2
KRNH - New Richmond Mun, Wisconsin, USA
Distance from station: E 41mi, 66km
Updated: 11/17/2019 6:55pm
Overcast
Overcast
 Wind from WNW
Wind: WNW 6 mph , 9 km/h
Temperature: 32°F , 0°C
Wind Chill: 26°F , -3°C
Dew Point: 27°F , -3°C
Humidity: 80%
Barometer: 29.86 inHg , 1011.2 hPa
Clouds: Overcast
Visibility: 10 miles , 16 km
Cloud details: Overcast 2300 ft
2019/11/18 00:55 KRNH 180055Z AUTO 29005KT 10SM OVC023 00/M03 A2986 RMK AO2 T10051035
 
KROS - Rush City, Minnesota, USA
Distance from station: NNE 41mi, 66km
Updated: 11/17/2019 7:16pm
Overcast
Overcast
 Wind from WNW
Wind: WNW 5 mph , 7 km/h
Temperature: 30°F , -1°C
Wind Chill: 25°F , -4°C
Dew Point: 25°F , -4°C
Humidity: 80%
Barometer: 29.86 inHg , 1011.2 hPa
Clouds: Overcast
Visibility: 10 miles , 16 km
Cloud details: Overcast 1900 ft
2019/11/18 01:16 KROS 180116Z AUTO 30004KT 10SM OVC019 M01/M04 A2986 RMK AO2 T10081043
KSTC - St. Cloud, Minnesota, USA
Distance from station: NW 41mi, 67km
Updated: 11/17/2019 6:53pm
Overcast
Overcast
 Wind from NW
Wind: NW 7 mph , 11 km/h
Temperature: 30°F , -1°C
Wind Chill: 23°F , -5°C
Dew Point: 25°F , -4°C
Humidity: 80%
Barometer: 29.87 inHg , 1011.5 hPa
Clouds: Overcast
Visibility: 10 miles , 16 km
Cloud details: Overcast 1500 ft
2019/11/18 00:53 KSTC 180053Z 32006KT 10SM OVC015 M01/M04 A2987 RMK AO2 SLP134 T10111039
 
KGYL - Glencoe, Minnesota, USA
Distance from station: SW 46mi, 74km
Updated: 11/17/2019 6:59pm
Overcast
Overcast
 Wind from W
Wind: W 9 mph , 15 km/h
Temperature: 32°F , 0°C
Wind Chill: 24°F , -4°C
Dew Point: 28°F , -2°C
Humidity: 87%
Barometer: 29.89 inHg , 1012.2 hPa
Clouds: Overcast
Visibility: 10 miles , 16 km
Cloud details: Overcast 1600 ft
2019/11/18 00:59 KGYL 180059Z AUTO 28008KT 10SM OVC016 00/M02 A2989 RMK AO2
KJMR - Mora, Minnesota, USA
Distance from station: N 48mi, 78km
Updated: 11/17/2019 7:15pm
Overcast
Overcast
 Wind from NNW
Wind: NNW 6 mph , 9 km/h
Temperature: 32°F , 0°C
Wind Chill: 26°F , -3°C
Dew Point: 27°F , -3°C
Humidity: 80%
Barometer: 29.87 inHg , 1011.5 hPa
Clouds: Overcast
Visibility: 10 miles , 16 km
Cloud details: Overcast 1900 ft
2019/11/18 01:15 KJMR 180115Z AUTO 34005KT 10SM OVC019 00/M03 A2987 RMK AO2